Time;durP1;ratioP1;P1;durP2;ratioP2;P2;SDS_P1;SDS_P2;PMS_P1;PMS_P2;Temp;Humidity;BMP_temperature;BMP_pressure;BME280_temperature;BME280_humidity;BME280_pressure;Samples;Min_cycle;Max_cycle;Signal;HPM_P1;HPM_P2
2023/06/15 00:02:15;;;;;;;2.65;1.30;;;14.90;99.90;;;;;;6246368;23;20016;-85
2023/06/15 00:04:41;;;;;;;2.40;1.33;;;14.80;99.90;;;;;;6249925;23;20027;-89
2023/06/15 00:07:07;;;;;;;3.70;1.10;;;14.80;99.90;;;;;;6255896;23;20451;-85
2023/06/15 00:09:33;;;;;;;3.50;1.40;;;14.80;99.90;;;;;;6230861;23;20023;-87
2023/06/15 00:11:59;;;;;;;1.58;0.90;;;14.80;99.90;;;;;;6256553;23;20020;-85
2023/06/15 00:14:24;;;;;;;2.85;1.20;;;14.80;99.90;;;;;;6255601;23;20027;-87
2023/06/15 00:16:52;;;;;;;3.38;1.45;;;14.70;99.90;;;;;;6229935;23;20454;-85
2023/06/15 00:19:21;;;;;;;2.13;1.27;;;14.70;99.90;;;;;;6256899;23;20047;-85
2023/06/15 00:21:48;;;;;;;3.67;1.13;;;14.70;99.90;;;;;;6256406;23;20091;-85
2023/06/15 00:24:16;;;;;;;1.40;0.93;;;14.70;99.90;;;;;;6254716;23;20023;-88
2023/06/15 00:26:43;;;;;;;1.80;0.82;;;14.70;99.90;;;;;;6255590;23;20020;-87
2023/06/15 00:29:10;;;;;;;3.35;1.25;;;14.70;99.90;;;;;;6255776;23;20062;-85
2023/06/15 00:31:35;;;;;;;2.75;1.30;;;14.70;99.90;;;;;;6255483;23;20054;-87
2023/06/15 15:36:24;;;;;;;2.15;0.80;;;26.80;67.40;;;;;;6218061;22;20107;-84
2023/06/15 15:38:49;;;;;;;3.75;1.00;;;26.80;65.90;;;;;;6187214;23;20051;-85
2023/06/15 15:41:15;;;;;;;2.72;0.93;;;26.60;66.10;;;;;;6214935;23;20028;-85
2023/06/15 15:43:41;;;;;;;3.55;1.05;;;26.30;66.30;;;;;;6187988;23;20028;-84
2023/06/15 15:46:09;;;;;;;1.98;0.77;;;26.20;66.10;;;;;;6215268;23;20032;-84
2023/06/15 15:48:35;;;;;;;3.95;0.95;;;26.10;66.90;;;;;;6188378;23;20099;-85
2023/06/15 15:51:01;;;;;;;1.70;0.70;;;26.10;67.20;;;;;;6188045;23;20051;-87
2023/06/15 15:53:26;;;;;;;1.80;0.80;;;26.30;66.60;;;;;;6187770;23;20017;-86
2023/06/15 15:55:52;;;;;;;6.35;1.00;;;25.90;66.20;;;;;;6188038;23;20096;-85
2023/06/15 15:58:18;;;;;;;2.35;0.90;;;25.90;66.90;;;;;;6188633;23;20091;-86
2023/06/15 16:00:48;;;;;;;2.80;1.00;;;26.20;67.20;;;;;;6211777;23;20074;-88
2023/06/15 16:03:14;;;;;;;1.73;0.70;;;26.30;66.60;;;;;;6214699;23;20086;-85
2023/06/15 16:05:40;;;;;;;1.20;0.77;;;26.50;65.70;;;;;;6162696;23;20063;-86
2023/06/15 16:08:06;;;;;;;1.70;0.65;;;26.50;64.30;;;;;;6213468;23;20454;-84
2023/06/15 16:10:32;;;;;;;1.27;0.80;;;26.80;64.80;;;;;;6188415;23;20013;-86
2023/06/15 16:12:57;;;;;;;2.95;0.75;;;26.70;62.70;;;;;;6187912;23;20354;-86
2023/06/15 16:15:23;;;;;;;1.67;0.80;;;26.60;62.50;;;;;;6187038;23;20040;-84
2023/06/15 16:17:49;;;;;;;2.55;0.90;;;26.50;64.10;;;;;;6214071;23;20067;-86
2023/06/15 16:20:15;;;;;;;1.85;0.80;;;26.70;64.30;;;;;;6188156;23;20021;-85
2023/06/15 16:22:41;;;;;;;2.75;0.77;;;26.20;66.30;;;;;;6214268;23;20083;-84
2023/06/15 16:25:07;;;;;;;1.58;0.80;;;26.10;64.60;;;;;;6188342;23;20159;-85
2023/06/15 16:27:34;;;;;;;1.85;0.77;;;25.80;64.20;;;;;;6215041;23;20128;-83
2023/06/15 16:30:00;;;;;;;1.30;0.70;;;25.90;65.60;;;;;;6213952;23;20396;-86
2023/06/15 16:32:28;;;;;;;3.53;0.90;;;25.70;65.70;;;;;;6189356;23;20059;-85
2023/06/15 16:34:54;;;;;;;2.17;0.77;;;26.00;66.10;;;;;;6192883;23;20020;-83
2023/06/15 16:37:21;;;;;;;2.55;0.65;;;25.60;64.40;;;;;;6215527;23;20082;-83
2023/06/15 16:39:52;;;;;;;2.75;0.80;;;25.40;65.00;;;;;;6216411;23;20012;-85
2023/06/15 16:42:29;;;;;;;2.80;0.88;;;25.30;66.30;;;;;;6189305;23;20017;-85
2023/06/15 16:45:00;;;;;;;3.20;0.90;;;25.30;65.00;;;;;;6187348;23;20024;-84
2023/06/15 16:47:29;;;;;;;4.72;0.98;;;25.10;65.00;;;;;;6214846;23;20108;-86
2023/06/15 16:49:56;;;;;;;2.35;0.80;;;25.00;64.10;;;;;;6216354;23;20025;-85
2023/06/15 16:52:22;;;;;;;2.97;0.70;;;25.20;64.40;;;;;;6189243;23;20059;-81
2023/06/15 16:54:49;;;;;;;0.85;0.65;;;25.10;63.40;;;;;;6216509;23;20028;-87
2023/06/15 16:57:16;;;;;;;1.60;0.60;;;24.90;62.90;;;;;;6216459;23;20016;-85
2023/06/15 16:59:43;;;;;;;2.22;0.75;;;25.00;63.60;;;;;;6188581;23;20047;-84
2023/06/15 17:02:11;;;;;;;1.10;0.70;;;24.80;61.30;;;;;;6189766;23;20450;-84
2023/06/15 17:04:36;;;;;;;3.30;0.70;;;25.00;62.40;;;;;;6175944;23;20465;-85
2023/06/15 17:07:03;;;;;;;3.83;0.60;;;25.20;62.50;;;;;;6189626;23;20025;-83
2023/06/15 17:09:30;;;;;;;0.90;0.50;;;24.90;60.90;;;;;;6216593;23;20099;-85
2023/06/15 17:11:55;;;;;;;1.67;0.77;;;24.90;64.20;;;;;;6216391;23;20103;-85
2023/06/15 17:14:22;;;;;;;2.72;0.70;;;24.60;64.80;;;;;;6216401;23;20455;-85
2023/06/15 17:16:48;;;;;;;3.13;0.80;;;24.60;64.30;;;;;;6189617;23;20031;-86
2023/06/15 17:19:14;;;;;;;2.92;0.90;;;24.50;65.00;;;;;;6189115;23;20020;-85
2023/06/15 17:21:43;;;;;;;3.80;0.70;;;24.70;67.10;;;;;;6216399;23;20020;-84
2023/06/15 17:24:09;;;;;;;0.73;0.60;;;24.80;66.60;;;;;;6189376;23;20020;-84
2023/06/15 17:26:39;;;;;;;1.30;0.80;;;24.70;64.80;;;;;;6189565;23;20017;-84
2023/06/15 17:29:05;;;;;;;1.70;1.23;;;24.80;66.10;;;;;;6216202;23;20021;-84
2023/06/15 17:31:31;;;;;;;1.98;0.80;;;24.80;64.70;;;;;;6216408;23;20021;-84
2023/06/15 17:33:57;;;;;;;1.27;0.82;;;24.60;64.80;;;;;;6189845;23;20028;-85
2023/06/15 17:36:22;;;;;;;2.17;0.93;;;24.60;65.40;;;;;;6230153;23;20020;-85
2023/06/15 17:38:48;;;;;;;1.65;0.90;;;24.30;66.00;;;;;;6246813;23;20020;-85
2023/06/15 17:41:15;;;;;;;4.18;0.80;;;24.30;66.80;;;;;;6219550;23;20402;-85
2023/06/15 17:43:41;;;;;;;6.60;1.05;;;24.10;70.30;;;;;;6219575;23;20016;-85
2023/06/15 17:46:08;;;;;;;1.27;0.80;;;23.80;73.40;;;;;;6246521;23;20062;-85
2023/06/15 17:48:34;;;;;;;1.52;0.80;;;23.70;75.40;;;;;;6246659;23;20027;-84
2023/06/15 17:51:00;;;;;;;2.65;0.88;;;23.50;76.80;;;;;;6194531;23;20073;-84
2023/06/15 17:53:27;;;;;;;1.67;0.80;;;23.30;77.80;;;;;;6246388;23;20086;-84
2023/06/15 17:56:00;;;;;;;1.52;0.82;;;23.10;79.00;;;;;;6246349;23;20028;-84
2023/06/15 17:58:28;;;;;;;1.90;0.80;;;23.10;78.30;;;;;;6219158;23;20102;-83
2023/06/15 18:00:55;;;;;;;5.35;1.10;;;22.90;77.80;;;;;;6246511;23;20070;-84
2023/06/15 18:03:22;;;;;;;2.53;0.93;;;22.80;79.40;;;;;;6246116;23;20020;-85
2023/06/15 18:05:48;;;;;;;2.47;0.73;;;22.70;79.20;;;;;;6245997;23;20008;-84
2023/06/15 18:08:19;;;;;;;1.55;0.80;;;22.50;78.50;;;;;;6218508;23;20105;-83
2023/06/15 18:10:46;;;;;;;1.85;0.88;;;22.30;78.90;;;;;;6246316;23;20100;-83
2023/06/15 18:13:12;;;;;;;1.05;0.73;;;22.10;78.70;;;;;;6246146;23;20020;-84
2023/06/15 18:15:39;;;;;;;1.20;0.70;;;21.90;81.60;;;;;;6246066;23;20027;-84
2023/06/15 18:18:11;;;;;;;2.63;0.85;;;21.80;82.30;;;;;;6245944;23;20105;-84
2023/06/15 18:20:40;;;;;;;3.05;0.90;;;21.50;82.90;;;;;;6246262;23;20078;-83
2023/06/15 18:23:07;;;;;;;1.75;0.70;;;21.40;83.60;;;;;;6245920;23;20024;-84
2023/06/15 18:25:33;;;;;;;2.22;1.00;;;21.20;83.90;;;;;;6246222;23;20095;-83
2023/06/15 18:28:00;;;;;;;1.70;0.82;;;20.90;84.50;;;;;;6245898;23;20115;-83
2023/06/15 18:30:26;;;;;;;1.75;0.90;;;20.80;85.80;;;;;;6245712;23;20446;-81
2023/06/15 18:32:52;;;;;;;2.08;0.90;;;20.80;86.50;;;;;;6246022;23;20350;-83
2023/06/15 18:35:18;;;;;;;2.20;0.85;;;20.60;87.20;;;;;;6245503;23;20020;-82
2023/06/15 18:37:43;;;;;;;3.67;0.70;;;20.40;87.80;;;;;;6218890;23;20039;-84
2023/06/15 18:40:09;;;;;;;3.38;1.10;;;20.50;88.50;;;;;;6246033;23;20070;-84
2023/06/15 18:42:36;;;;;;;1.67;0.90;;;20.30;88.80;;;;;;6245955;23;20020;-84
2023/06/15 18:45:09;;;;;;;1.60;0.90;;;20.20;90.10;;;;;;6219076;23;20048;-84
2023/06/15 18:47:36;;;;;;;1.50;0.73;;;20.20;90.30;;;;;;6193523;23;20031;-85
2023/06/15 18:50:03;;;;;;;2.17;0.80;;;20.20;90.70;;;;;;6218310;23;20032;-85
2023/06/15 18:52:29;;;;;;;1.83;0.80;;;20.00;90.80;;;;;;6219169;23;20020;-86
2023/06/15 18:54:55;;;;;;;2.88;1.30;;;20.00;91.40;;;;;;6246024;23;20023;-86
2023/06/15 18:57:21;;;;;;;1.70;0.90;;;19.90;91.60;;;;;;6193461;23;20028;-85
2023/06/15 18:59:47;;;;;;;2.15;0.77;;;19.90;91.80;;;;;;6218680;23;20024;-84
2023/06/15 19:02:16;;;;;;;6.30;0.90;;;19.90;91.80;;;;;;6242732;23;20027;-85
2023/06/15 19:04:45;;;;;;;1.63;0.90;;;19.90;92.10;;;;;;6218354;23;20016;-88
2023/06/15 19:07:11;;;;;;;2.17;0.88;;;19.80;91.80;;;;;;6245635;23;20024;-84
2023/06/15 19:09:40;;;;;;;5.10;0.90;;;19.90;92.30;;;;;;6244711;23;20024;-85
2023/06/15 19:12:06;;;;;;;1.95;1.02;;;19.80;92.20;;;;;;6245091;23;20008;-85
2023/06/15 19:14:36;;;;;;;2.38;1.00;;;19.70;92.30;;;;;;6245175;23;20095;-85
2023/06/15 19:17:07;;;;;;;2.60;1.02;;;19.70;92.50;;;;;;6217345;23;20039;-83
2023/06/15 19:19:33;;;;;;;1.20;0.90;;;19.70;91.80;;;;;;6217892;23;20016;-85
2023/06/15 19:21:59;;;;;;;2.38;1.00;;;19.50;91.40;;;;;;6217977;23;20362;-84
2023/06/15 19:24:25;;;;;;;1.67;0.80;;;19.50;91.20;;;;;;6244561;23;20085;-84
2023/06/15 19:26:51;;;;;;;1.80;0.93;;;19.40;91.40;;;;;;6217787;23;20024;-85
2023/06/15 19:29:17;;;;;;;1.67;1.00;;;19.30;91.60;;;;;;6244716;23;20511;-85
2023/06/15 19:31:43;;;;;;;2.75;1.00;;;19.20;91.70;;;;;;6217415;23;20055;-84
2023/06/15 19:34:08;;;;;;;2.35;0.82;;;19.00;91.90;;;;;;6244595;23;20070;-86
2023/06/15 19:36:37;;;;;;;1.58;0.98;;;19.00;91.90;;;;;;6244476;23;20024;-84
2023/06/15 19:39:03;;;;;;;1.38;0.80;;;19.00;92.10;;;;;;6244515;23;20030;-86
2023/06/15 19:41:29;;;;;;;2.03;0.90;;;19.00;92.30;;;;;;6244529;23;20021;-85
2023/06/15 19:43:55;;;;;;;0.70;0.60;;;18.90;92.20;;;;;;6217814;23;20035;-85
2023/06/15 19:46:21;;;;;;;1.35;0.82;;;18.90;92.20;;;;;;6217217;23;20027;-85
2023/06/15 19:48:47;;;;;;;0.88;0.55;;;18.90;92.50;;;;;;6217325;23;20024;-84
2023/06/15 19:51:12;;;;;;;2.70;1.00;;;18.90;92.10;;;;;;6217373;23;20409;-84
2023/06/15 19:53:40;;;;;;;2.75;1.10;;;18.80;92.50;;;;;;6239625;23;20039;-86
2023/06/15 19:56:10;;;;;;;1.75;0.90;;;18.80;92.60;;;;;;6212682;23;20082;-87
2023/06/15 19:58:36;;;;;;;1.15;0.70;;;18.80;92.50;;;;;;6218246;23;20016;-85
2023/06/15 20:01:02;;;;;;;1.30;0.73;;;18.70;92.40;;;;;;6218146;23;20025;-86
2023/06/15 20:03:32;;;;;;;2.42;1.15;;;18.70;92.40;;;;;;6245203;23;20019;-88
2023/06/15 20:06:02;;;;;;;1.92;0.80;;;18.60;92.50;;;;;;6217651;23;20017;-86
2023/06/15 20:08:30;;;;;;;2.10;1.00;;;18.60;92.50;;;;;;6245313;23;20017;-86
2023/06/15 20:10:56;;;;;;;2.30;0.93;;;18.50;92.70;;;;;;6245092;23;20031;-87
2023/06/15 20:13:24;;;;;;;2.95;1.40;;;18.40;92.80;;;;;;6245156;23;20023;-87
2023/06/15 20:15:51;;;;;;;3.30;1.00;;;18.40;93.30;;;;;;6244802;23;20498;-86
2023/06/15 20:18:16;;;;;;;2.85;0.80;;;18.30;93.20;;;;;;6244914;23;20399;-87
2023/06/15 20:20:42;;;;;;;1.50;0.98;;;18.30;93.50;;;;;;6217804;23;20031;-86
2023/06/15 20:23:08;;;;;;;4.15;0.75;;;18.30;93.70;;;;;;6247260;23;20016;-87
2023/06/15 20:25:35;;;;;;;2.35;1.10;;;18.30;94.30;;;;;;6195483;23;20028;-85
2023/06/15 20:28:01;;;;;;;2.17;0.80;;;18.30;94.30;;;;;;6220225;23;20020;-88
2023/06/15 20:30:27;;;;;;;1.77;0.80;;;18.20;94.20;;;;;;6219750;23;20031;-87
2023/06/15 20:32:53;;;;;;;2.10;0.85;;;18.20;94.70;;;;;;6220156;23;20103;-86
2023/06/15 20:35:19;;;;;;;2.13;1.23;;;18.10;94.80;;;;;;6219813;23;20024;-87
2023/06/15 20:37:45;;;;;;;2.80;1.10;;;18.00;95.20;;;;;;6219766;23;20464;-87
2023/06/15 20:40:11;;;;;;;2.00;1.00;;;18.00;95.30;;;;;;6195314;23;20331;-87
2023/06/15 20:42:37;;;;;;;2.50;1.40;;;18.00;95.60;;;;;;6247585;23;20020;-85
2023/06/15 20:45:03;;;;;;;1.67;1.10;;;18.00;96.00;;;;;;6220638;23;20024;-87
2023/06/15 20:47:29;;;;;;;1.83;1.08;;;17.90;96.40;;;;;;6220495;23;20397;-86
2023/06/15 20:49:55;;;;;;;1.95;1.30;;;17.90;96.70;;;;;;6247692;23;20020;-85
2023/06/15 20:52:22;;;;;;;1.83;1.10;;;17.80;96.90;;;;;;6220958;23;20024;-85
2023/06/15 20:54:47;;;;;;;2.53;1.05;;;17.80;97.30;;;;;;6247307;23;20074;-85
2023/06/15 20:57:13;;;;;;;2.40;1.10;;;17.70;97.70;;;;;;6247988;23;20374;-85
2023/06/15 20:59:39;;;;;;;2.20;1.10;;;17.70;98.10;;;;;;6248938;23;20024;-86
2023/06/15 21:02:05;;;;;;;2.50;1.10;;;17.60;98.20;;;;;;6250221;23;20039;-85
2023/06/15 21:04:31;;;;;;;3.03;1.35;;;17.60;98.70;;;;;;6221279;23;20042;-85
2023/06/15 21:06:57;;;;;;;1.95;0.88;;;17.60;98.40;;;;;;6246641;23;20020;-84
2023/06/15 21:09:22;;;;;;;1.95;1.40;;;17.50;99.10;;;;;;6222100;23;20034;-86
2023/06/15 21:11:48;;;;;;;3.20;1.35;;;17.50;99.50;;;;;;6220362;23;20016;-85
2023/06/15 21:14:14;;;;;;;1.73;1.20;;;17.40;99.80;;;;;;6220622;23;20020;-87
2023/06/15 21:16:40;;;;;;;2.83;1.45;;;17.30;99.90;;;;;;6247637;23;20016;-87
2023/06/15 21:19:06;;;;;;;4.50;1.13;;;17.30;99.90;;;;;;6247363;23;20379;-80
2023/06/15 21:21:31;;;;;;;2.42;1.48;;;17.30;99.90;;;;;;6247016;23;20017;-85
2023/06/15 21:23:57;;;;;;;4.93;1.40;;;17.30;99.90;;;;;;6247192;23;20048;-83
2023/06/15 21:26:23;;;;;;;1.67;1.05;;;17.20;99.90;;;;;;6220375;23;20031;-84
2023/06/15 21:28:48;;;;;;;2.45;1.20;;;17.20;99.90;;;;;;6246834;23;20346;-83
2023/06/15 21:31:14;;;;;;;2.35;1.40;;;17.20;99.90;;;;;;6246526;23;20050;-84
2023/06/15 21:33:40;;;;;;;2.67;1.42;;;17.10;99.90;;;;;;6219066;23;20031;-83
2023/06/15 21:36:06;;;;;;;4.57;1.58;;;17.10;99.90;;;;;;6246011;23;20043;-83
2023/06/15 21:38:32;;;;;;;1.90;1.23;;;17.00;99.90;;;;;;6219157;23;20465;-87
2023/06/15 21:40:57;;;;;;;3.03;1.60;;;17.00;99.90;;;;;;6219380;23;20052;-86
2023/06/15 21:43:23;;;;;;;2.35;1.27;;;17.00;99.90;;;;;;6219264;23;20048;-86
2023/06/15 21:45:49;;;;;;;1.73;1.27;;;16.90;99.90;;;;;;6219416;23;20465;-85
2023/06/15 21:48:15;;;;;;;2.50;1.33;;;16.90;99.90;;;;;;6246451;23;20056;-86
2023/06/15 21:50:41;;;;;;;4.38;1.20;;;16.80;99.90;;;;;;6246171;23;20480;-88
2023/06/15 21:53:07;;;;;;;2.15;1.30;;;16.80;99.90;;;;;;6218999;23;20382;-86
2023/06/15 21:55:33;;;;;;;2.33;1.60;;;16.70;99.90;;;;;;6246357;23;20522;-86
2023/06/15 21:57:58;;;;;;;2.92;1.70;;;16.70;99.90;;;;;;6219794;23;20048;-86
2023/06/15 22:00:26;;;;;;;3.58;1.60;;;16.60;99.90;;;;;;6245701;23;20078;-86
2023/06/15 22:02:52;;;;;;;2.60;1.45;;;16.60;99.90;;;;;;6246527;23;20342;-89
2023/06/15 22:05:19;;;;;;;2.60;1.90;;;16.60;99.90;;;;;;6218819;23;20024;-88
2023/06/15 22:07:45;;;;;;;4.78;2.28;;;16.60;99.90;;;;;;6242901;23;20016;-85
2023/06/15 22:10:11;;;;;;;3.60;1.80;;;16.50;99.90;;;;;;6218823;23;20093;-87
2023/06/15 22:12:40;;;;;;;3.13;2.00;;;16.50;99.90;;;;;;6245657;23;20099;-88
2023/06/15 22:15:07;;;;;;;3.78;1.80;;;16.50;99.90;;;;;;6219207;23;20016;-88
2023/06/15 22:17:38;;;;;;;3.78;2.00;;;16.40;99.90;;;;;;6245896;23;20031;-86
2023/06/15 22:20:08;;;;;;;4.38;2.85;;;16.40;99.90;;;;;;6245721;23;20086;-86
2023/06/15 22:22:34;;;;;;;3.03;1.90;;;16.30;99.90;;;;;;6243351;23;20020;-85
2023/06/15 22:25:00;;;;;;;4.32;2.70;;;16.30;99.90;;;;;;6218882;23;20386;-88
2023/06/15 22:27:26;;;;;;;3.25;1.98;;;16.30;99.90;;;;;;6245645;23;20020;-85
2023/06/15 22:29:52;;;;;;;4.65;2.15;;;16.30;99.90;;;;;;6244860;23;20031;-86
2023/06/15 22:32:21;;;;;;;4.10;1.80;;;16.30;99.90;;;;;;6193556;23;20047;-85
2023/06/15 22:34:47;;;;;;;2.85;1.60;;;16.30;99.90;;;;;;6245940;23;20020;-84
2023/06/15 22:37:15;;;;;;;3.33;1.90;;;16.30;99.90;;;;;;6244729;23;20016;-85
2023/06/15 22:39:42;;;;;;;5.35;2.47;;;16.20;99.90;;;;;;6245597;23;20022;-85
2023/06/15 22:42:08;;;;;;;3.53;2.47;;;16.20;99.90;;;;;;6245779;23;20023;-84
2023/06/15 22:44:35;;;;;;;3.10;2.33;;;16.20;99.90;;;;;;6218302;23;20028;-84
2023/06/15 22:47:02;;;;;;;2.38;2.03;;;16.10;99.90;;;;;;6218360;23;20059;-85
2023/06/15 22:49:38;;;;;;;3.13;2.15;;;16.10;99.90;;;;;;6245338;23;20028;-86
2023/06/15 22:52:10;;;;;;;3.85;2.20;;;16.10;99.90;;;;;;6244398;23;20026;-86
2023/06/15 22:54:37;;;;;;;3.13;2.08;;;16.10;99.90;;;;;;6245789;23;20012;-85
2023/06/15 22:57:03;;;;;;;3.38;2.53;;;16.00;99.90;;;;;;6245594;23;20029;-84
2023/06/15 22:59:29;;;;;;;2.95;2.03;;;16.00;99.90;;;;;;6217623;23;20320;-85
2023/06/15 23:01:54;;;;;;;3.35;2.15;;;16.00;99.90;;;;;;6245715;23;20058;-86
2023/06/15 23:04:20;;;;;;;3.40;2.50;;;16.00;99.90;;;;;;6245412;23;20020;-84
2023/06/15 23:06:47;;;;;;;4.03;2.00;;;15.90;99.90;;;;;;6244594;23;20448;-85
2023/06/15 23:09:13;;;;;;;4.65;2.38;;;16.00;99.90;;;;;;6218404;23;20036;-84
2023/06/15 23:11:39;;;;;;;2.50;1.85;;;15.90;99.90;;;;;;6245207;23;20024;-85
2023/06/15 23:14:08;;;;;;;2.75;1.90;;;16.00;99.90;;;;;;6217706;23;20055;-85
2023/06/15 23:16:37;;;;;;;2.97;2.00;;;15.90;99.90;;;;;;6245639;23;20024;-84
2023/06/15 23:19:13;;;;;;;4.05;2.13;;;15.90;99.90;;;;;;6218590;23;20034;-85
2023/06/15 23:21:40;;;;;;;3.03;2.22;;;15.90;99.90;;;;;;6244082;23;20066;-85
2023/06/15 23:24:07;;;;;;;2.92;2.22;;;15.80;99.90;;;;;;6218605;23;20067;-84
2023/06/15 23:26:38;;;;;;;3.17;2.05;;;15.70;99.90;;;;;;6245070;23;20016;-84
2023/06/15 23:29:06;;;;;;;3.72;1.80;;;15.70;99.90;;;;;;6218252;23;20455;-84
2023/06/15 23:31:34;;;;;;;4.22;2.35;;;15.70;99.90;;;;;;6218371;23;20375;-85
2023/06/15 23:34:01;;;;;;;2.70;2.25;;;15.70;99.90;;;;;;6245037;23;20434;-84
2023/06/15 23:36:26;;;;;;;3.50;2.53;;;15.70;99.90;;;;;;6217873;23;20027;-84
2023/06/15 23:38:52;;;;;;;2.88;1.73;;;15.70;99.90;;;;;;6245487;23;20062;-84
2023/06/15 23:41:21;;;;;;;3.78;2.85;;;15.70;99.90;;;;;;6218398;23;20012;-84
2023/06/15 23:43:50;;;;;;;3.47;2.67;;;15.60;99.90;;;;;;6245404;23;20023;-84
2023/06/15 23:46:16;;;;;;;3.90;2.40;;;15.70;99.90;;;;;;6245461;23;20012;-84
2023/06/15 23:48:46;;;;;;;4.00;2.15;;;15.60;99.90;;;;;;6218188;23;20052;-84
2023/06/15 23:51:16;;;;;;;3.95;2.10;;;15.60;99.90;;;;;;6218124;23;20031;-83
2023/06/15 23:53:45;;;;;;;3.13;1.95;;;15.60;99.90;;;;;;6245287;23;20338;-85
2023/06/15 23:56:11;;;;;;;2.75;1.95;;;15.60;99.90;;;;;;6245117;23;20011;-84
2023/06/15 23:58:37;;;;;;;4.32;2.13;;;15.60;99.90;;;;;;6220571;23;20391;-84
